Ana Sayfa
METAR-TAF:

METAR-TAF

Havaalanları :

Yap, Mikronezya

Enlem: 09-29N, Boylam: 138-05E, yükseklik: 28 m

Güncel hava durumu gözlemi

Rapor saat 02:51 UTC de 42 dakika önce yapıldı.
Rüzgar kuzeybatıdan 7 kt
Sıcaklık 31°C
Nem 75%
Basınç 1007 hPa
Görüş mesafesi: 19.3 km
1600 ft yükseklikte parçalı bulutlu, Yükselen kümülüs.
13000 ft yükseklikte parçalı bulutlu
30000 ft yükseklikte parçalı çok bulutlu

METAR: PTYA 230251Z 32007KT 12SM SCT016TCU SCT130 BKN300 31/26 A2974 RMK TCU S SLP073 8/271 T03110261 58015

Saat: 13:33 (03:33 UTC)

Tahmin

Rapor saat 23:32 UTC de 4 saat ve 1 dakika önce yapıldı.
Ayın 23'si saat 00 UTC'den ayın 23'si saat 24 UTC'ye kadar geçerli Tahmin
Rüzgar kuzeydan 8 kt
Görüş mesafesi: 10 km
1600 ft yükseklikte parçalı bulutlu
13000 ft yükseklikte parçalı bulutlu
Civarda sağanaklar

TAF: PTYA 222332Z 2300/2324 35008KT P6SM VCSH SCT016 SCT130

4.000'den fazla havaalanı için hava durumu gözlemleri ve tahminleri (METAR ve TAF raporları).

Kullanılabilir istasyonlar harita üzerinde sarı ve kırmızı noktalarla gösterilir.

İstasyonun adını görmek için fareyi noktanın üzerinde gezdirin.

Sonrasında hava gözlem ve tahminlerini görmek için tıklayın.

Haritayı değiştirmek için: yaklaştırmak için siyah artı işaretli yeşil düğmeye ve uzaklaştırmak için de eksi işaretli düğmeye hızla tıklayın; bitişik haritalar için yeşil okları kullanın.


METAR-TAF: